sensor_id;sensor_type;location;lat;lon;timestamp;temperature;humidity
43089;DHT22;28709;52.030;5.652;2023-10-08T00:02:24;18.10;99.90
43089;DHT22;28709;52.030;5.652;2023-10-08T00:04:51;18.10;99.90
43089;DHT22;28709;52.030;5.652;2023-10-08T00:07:18;18.10;99.90
43089;DHT22;28709;52.030;5.652;2023-10-08T00:09:48;18.10;99.90
43089;DHT22;28709;52.030;5.652;2023-10-08T00:12:14;18.10;99.90
43089;DHT22;28709;52.030;5.652;2023-10-08T00:14:41;18.10;99.90
43089;DHT22;28709;52.030;5.652;2023-10-08T00:17:13;18.00;99.90
43089;DHT22;28709;52.030;5.652;2023-10-08T00:19:39;18.00;99.90
43089;DHT22;28709;52.030;5.652;2023-10-08T00:22:08;18.00;99.90
43089;DHT22;28709;52.030;5.652;2023-10-08T00:24:34;18.00;99.90
43089;DHT22;28709;52.030;5.652;2023-10-08T00:27:00;18.00;99.90
43089;DHT22;28709;52.030;5.652;2023-10-08T00:29:26;18.00;99.90
43089;DHT22;28709;52.030;5.652;2023-10-08T00:31:52;18.00;99.90
43089;DHT22;28709;52.030;5.652;2023-10-08T00:34:22;18.00;99.90
43089;DHT22;28709;52.030;5.652;2023-10-08T00:36:50;17.90;99.90
43089;DHT22;28709;52.030;5.652;2023-10-08T00:39:17;18.00;99.90
43089;DHT22;28709;52.030;5.652;2023-10-08T00:41:48;18.00;99.90
43089;DHT22;28709;52.030;5.652;2023-10-08T00:44:15;18.00;99.90
43089;DHT22;28709;52.030;5.652;2023-10-08T00:46:47;18.00;99.90
43089;DHT22;28709;52.030;5.652;2023-10-08T00:49:19;18.00;99.90
43089;DHT22;28709;52.030;5.652;2023-10-08T00:52:13;18.00;99.90
43089;DHT22;28709;52.030;5.652;2023-10-08T00:54:42;18.00;99.90
43089;DHT22;28709;52.030;5.652;2023-10-08T00:57:18;18.00;99.90
43089;DHT22;28709;52.030;5.652;2023-10-08T00:59:50;18.00;99.90
43089;DHT22;28709;52.030;5.652;2023-10-08T01:02:24;18.00;99.90
43089;DHT22;28709;52.030;5.652;2023-10-08T01:04:52;18.00;99.90
43089;DHT22;28709;52.030;5.652;2023-10-08T01:07:18;18.00;99.90
43089;DHT22;28709;52.030;5.652;2023-10-08T01:09:44;18.00;99.90
43089;DHT22;28709;52.030;5.652;2023-10-08T01:12:21;18.00;99.90
43089;DHT22;28709;52.030;5.652;2023-10-08T01:14:47;18.00;99.90
43089;DHT22;28709;52.030;5.652;2023-10-08T01:17:15;18.00;99.90
43089;DHT22;28709;52.030;5.652;2023-10-08T01:19:46;18.00;99.90
43089;DHT22;28709;52.030;5.652;2023-10-08T01:22:16;18.00;99.90
43089;DHT22;28709;52.030;5.652;2023-10-08T01:24:44;18.00;99.90
43089;DHT22;28709;52.030;5.652;2023-10-08T01:27:18;17.90;99.90
43089;DHT22;28709;52.030;5.652;2023-10-08T01:29:51;17.90;99.90
43089;DHT22;28709;52.030;5.652;2023-10-08T01:32:21;17.90;99.90
43089;DHT22;28709;52.030;5.652;2023-10-08T01:34:48;17.90;99.90
43089;DHT22;28709;52.030;5.652;2023-10-08T01:37:15;17.80;99.90
43089;DHT22;28709;52.030;5.652;2023-10-08T01:39:46;17.90;99.90
43089;DHT22;28709;52.030;5.652;2023-10-08T01:42:18;17.80;99.90
43089;DHT22;28709;52.030;5.652;2023-10-08T01:44:46;17.80;99.90
43089;DHT22;28709;52.030;5.652;2023-10-08T01:47:13;17.80;99.90
43089;DHT22;28709;52.030;5.652;2023-10-08T01:49:39;17.80;99.90
43089;DHT22;28709;52.030;5.652;2023-10-08T01:52:06;17.80;99.90
43089;DHT22;28709;52.030;5.652;2023-10-08T01:54:43;17.80;99.90
43089;DHT22;28709;52.030;5.652;2023-10-08T01:57:09;17.80;99.90
43089;DHT22;28709;52.030;5.652;2023-10-08T01:59:35;17.80;99.90
43089;DHT22;28709;52.030;5.652;2023-10-08T02:02:04;17.80;99.90
43089;DHT22;28709;52.030;5.652;2023-10-08T02:04:32;17.80;99.90
43089;DHT22;28709;52.030;5.652;2023-10-08T02:06:59;17.80;99.90
43089;DHT22;28709;52.030;5.652;2023-10-08T02:09:25;17.70;99.90
43089;DHT22;28709;52.030;5.652;2023-10-08T02:11:52;17.80;99.90
43089;DHT22;28709;52.030;5.652;2023-10-08T02:14:20;17.70;99.90
43089;DHT22;28709;52.030;5.652;2023-10-08T02:16:46;17.70;99.90
43089;DHT22;28709;52.030;5.652;2023-10-08T02:19:13;17.70;99.90
43089;DHT22;28709;52.030;5.652;2023-10-08T02:21:39;17.70;99.90
43089;DHT22;28709;52.030;5.652;2023-10-08T02:24:08;17.70;99.90
43089;DHT22;28709;52.030;5.652;2023-10-08T02:26:36;17.70;99.90
43089;DHT22;28709;52.030;5.652;2023-10-08T02:29:03;17.70;99.90
43089;DHT22;28709;52.030;5.652;2023-10-08T02:31:39;17.70;99.90
43089;DHT22;28709;52.030;5.652;2023-10-08T02:34:08;17.70;99.90
43089;DHT22;28709;52.030;5.652;2023-10-08T02:36:35;17.70;99.90
43089;DHT22;28709;52.030;5.652;2023-10-08T02:39:02;17.70;99.90
43089;DHT22;28709;52.030;5.652;2023-10-08T02:41:32;17.70;99.90
43089;DHT22;28709;52.030;5.652;2023-10-08T02:43:58;17.70;99.90
43089;DHT22;28709;52.030;5.652;2023-10-08T02:46:24;17.60;99.90
43089;DHT22;28709;52.030;5.652;2023-10-08T02:48:52;17.60;99.90
43089;DHT22;28709;52.030;5.652;2023-10-08T02:51:18;17.60;99.90
43089;DHT22;28709;52.030;5.652;2023-10-08T02:53:46;17.60;99.90
43089;DHT22;28709;52.030;5.652;2023-10-08T02:56:12;17.50;99.90
43089;DHT22;28709;52.030;5.652;2023-10-08T02:58:41;17.60;99.90
43089;DHT22;28709;52.030;5.652;2023-10-08T03:01:09;17.60;99.90
43089;DHT22;28709;52.030;5.652;2023-10-08T03:03:41;17.60;99.90
43089;DHT22;28709;52.030;5.652;2023-10-08T03:06:12;17.60;99.90
43089;DHT22;28709;52.030;5.652;2023-10-08T03:08:40;17.60;99.90
43089;DHT22;28709;52.030;5.652;2023-10-08T03:11:09;17.60;99.90
43089;DHT22;28709;52.030;5.652;2023-10-08T03:13:45;17.60;99.90
43089;DHT22;28709;52.030;5.652;2023-10-08T03:16:17;17.60;99.90
43089;DHT22;28709;52.030;5.652;2023-10-08T03:18:47;17.60;99.90
43089;DHT22;28709;52.030;5.652;2023-10-08T03:21:15;17.60;99.90
43089;DHT22;28709;52.030;5.652;2023-10-08T03:23:48;17.60;99.90
43089;DHT22;28709;52.030;5.652;2023-10-08T03:26:16;17.60;99.90
43089;DHT22;28709;52.030;5.652;2023-10-08T03:28:56;17.60;99.90
43089;DHT22;28709;52.030;5.652;2023-10-08T03:31:25;17.60;99.90
43089;DHT22;28709;52.030;5.652;2023-10-08T03:34:10;17.60;99.90
43089;DHT22;28709;52.030;5.652;2023-10-08T03:36:39;17.60;99.90
43089;DHT22;28709;52.030;5.652;2023-10-08T03:39:15;17.60;99.90
43089;DHT22;28709;52.030;5.652;2023-10-08T03:41:41;17.60;99.90
43089;DHT22;28709;52.030;5.652;2023-10-08T03:44:08;17.50;99.90
43089;DHT22;28709;52.030;5.652;2023-10-08T03:46:40;17.50;99.90
43089;DHT22;28709;52.030;5.652;2023-10-08T03:49:11;17.40;99.90
43089;DHT22;28709;52.030;5.652;2023-10-08T03:51:56;17.40;99.90
43089;DHT22;28709;52.030;5.652;2023-10-08T03:54:23;17.40;99.90
43089;DHT22;28709;52.030;5.652;2023-10-08T03:56:55;17.30;99.90
43089;DHT22;28709;52.030;5.652;2023-10-08T03:59:21;17.30;99.90
43089;DHT22;28709;52.030;5.652;2023-10-08T04:02:00;17.30;99.90
43089;DHT22;28709;52.030;5.652;2023-10-08T04:04:44;17.30;99.90
43089;DHT22;28709;52.030;5.652;2023-10-08T04:07:21;17.30;99.90
43089;DHT22;28709;52.030;5.652;2023-10-08T04:10:00;17.30;99.90
43089;DHT22;28709;52.030;5.652;2023-10-08T04:12:35;17.30;99.90
43089;DHT22;28709;52.030;5.652;2023-10-08T04:15:06;17.40;99.90
43089;DHT22;28709;52.030;5.652;2023-10-08T04:17:41;17.40;99.90
43089;DHT22;28709;52.030;5.652;2023-10-08T04:20:14;17.40;99.90
43089;DHT22;28709;52.030;5.652;2023-10-08T04:22:59;17.40;99.90
43089;DHT22;28709;52.030;5.652;2023-10-08T04:25:29;17.30;99.90
43089;DHT22;28709;52.030;5.652;2023-10-08T04:27:55;17.40;99.90
43089;DHT22;28709;52.030;5.652;2023-10-08T04:30:27;17.40;99.90
43089;DHT22;28709;52.030;5.652;2023-10-08T04:35:36;17.30;99.90
43089;DHT22;28709;52.030;5.652;2023-10-08T04:38:23;17.30;99.90
43089;DHT22;28709;52.030;5.652;2023-10-08T04:40:51;17.30;99.90
43089;DHT22;28709;52.030;5.652;2023-10-08T04:43:18;17.40;99.90
43089;DHT22;28709;52.030;5.652;2023-10-08T04:45:57;17.30;99.90
43089;DHT22;28709;52.030;5.652;2023-10-08T04:48:24;17.30;99.90
43089;DHT22;28709;52.030;5.652;2023-10-08T04:50:51;17.30;99.90
43089;DHT22;28709;52.030;5.652;2023-10-08T04:53:25;17.10;99.90
43089;DHT22;28709;52.030;5.652;2023-10-08T04:56:00;17.00;99.90
43089;DHT22;28709;52.030;5.652;2023-10-08T04:58:34;16.90;99.90
43089;DHT22;28709;52.030;5.652;2023-10-08T05:01:03;16.80;99.90
43089;DHT22;28709;52.030;5.652;2023-10-08T05:03:51;16.60;99.90
43089;DHT22;28709;52.030;5.652;2023-10-08T05:06:32;16.50;99.90
43089;DHT22;28709;52.030;5.652;2023-10-08T05:09:11;16.30;99.90
43089;DHT22;28709;52.030;5.652;2023-10-08T05:11:51;16.20;99.90
43089;DHT22;28709;52.030;5.652;2023-10-08T05:14:18;16.00;99.90
43089;DHT22;28709;52.030;5.652;2023-10-08T05:17:00;16.00;99.90
43089;DHT22;28709;52.030;5.652;2023-10-08T05:19:29;16.00;99.90
43089;DHT22;28709;52.030;5.652;2023-10-08T05:22:11;15.90;99.90
43089;DHT22;28709;52.030;5.652;2023-10-08T05:24:49;15.90;99.90
43089;DHT22;28709;52.030;5.652;2023-10-08T05:27:43;15.80;99.90
43089;DHT22;28709;52.030;5.652;2023-10-08T05:30:25;15.60;99.90
43089;DHT22;28709;52.030;5.652;2023-10-08T05:33:07;15.50;99.90
43089;DHT22;28709;52.030;5.652;2023-10-08T05:35:40;15.50;99.90
43089;DHT22;28709;52.030;5.652;2023-10-08T05:38:07;15.40;99.90
43089;DHT22;28709;52.030;5.652;2023-10-08T05:40:44;15.30;99.90
43089;DHT22;28709;52.030;5.652;2023-10-08T05:43:22;15.20;99.90
43089;DHT22;28709;52.030;5.652;2023-10-08T05:46:13;15.10;99.90
43089;DHT22;28709;52.030;5.652;2023-10-08T05:49:05;15.00;99.90
43089;DHT22;28709;52.030;5.652;2023-10-08T05:51:37;15.00;99.90
43089;DHT22;28709;52.030;5.652;2023-10-08T05:54:30;14.90;99.90
43089;DHT22;28709;52.030;5.652;2023-10-08T05:57:06;14.90;99.90
43089;DHT22;28709;52.030;5.652;2023-10-08T05:59:38;14.80;99.90
43089;DHT22;28709;52.030;5.652;2023-10-08T06:02:22;14.90;99.90
43089;DHT22;28709;52.030;5.652;2023-10-08T06:05:07;14.80;99.90
43089;DHT22;28709;52.030;5.652;2023-10-08T06:10:20;14.60;99.90
43089;DHT22;28709;52.030;5.652;2023-10-08T06:12:52;14.50;99.90
43089;DHT22;28709;52.030;5.652;2023-10-08T06:15:27;14.50;99.90
43089;DHT22;28709;52.030;5.652;2023-10-08T06:18:13;14.50;99.90
43089;DHT22;28709;52.030;5.652;2023-10-08T06:20:40;14.50;99.90
43089;DHT22;28709;52.030;5.652;2023-10-08T06:23:12;14.50;99.90
43089;DHT22;28709;52.030;5.652;2023-10-08T06:25:41;14.50;99.90
43089;DHT22;28709;52.030;5.652;2023-10-08T06:28:17;14.50;99.90
43089;DHT22;28709;52.030;5.652;2023-10-08T06:30:50;14.40;99.90
43089;DHT22;28709;52.030;5.652;2023-10-08T06:33:19;14.40;99.90
43089;DHT22;28709;52.030;5.652;2023-10-08T06:35:46;14.40;99.90
43089;DHT22;28709;52.030;5.652;2023-10-08T06:38:27;14.40;99.90
43089;DHT22;28709;52.030;5.652;2023-10-08T06:40:56;14.30;99.90
43089;DHT22;28709;52.030;5.652;2023-10-08T06:43:26;14.30;99.90
43089;DHT22;28709;52.030;5.652;2023-10-08T06:45:52;14.30;99.90
43089;DHT22;28709;52.030;5.652;2023-10-08T06:48:19;14.30;99.90
43089;DHT22;28709;52.030;5.652;2023-10-08T06:50:49;14.30;99.90
43089;DHT22;28709;52.030;5.652;2023-10-08T06:53:16;14.30;99.90
43089;DHT22;28709;52.030;5.652;2023-10-08T06:55:44;14.40;99.90
43089;DHT22;28709;52.030;5.652;2023-10-08T06:58:10;14.30;99.90
43089;DHT22;28709;52.030;5.652;2023-10-08T07:00:40;14.30;99.90
43089;DHT22;28709;52.030;5.652;2023-10-08T07:03:07;14.20;99.90
43089;DHT22;28709;52.030;5.652;2023-10-08T07:05:35;14.30;99.90
43089;DHT22;28709;52.030;5.652;2023-10-08T07:08:07;14.20;99.90
43089;DHT22;28709;52.030;5.652;2023-10-08T07:10:33;14.20;99.90
43089;DHT22;28709;52.030;5.652;2023-10-08T07:13:02;14.30;99.90
43089;DHT22;28709;52.030;5.652;2023-10-08T07:15:31;14.30;99.90
43089;DHT22;28709;52.030;5.652;2023-10-08T07:17:57;14.40;99.90
43089;DHT22;28709;52.030;5.652;2023-10-08T07:20:34;14.40;99.90
43089;DHT22;28709;52.030;5.652;2023-10-08T07:23:05;14.30;99.90
43089;DHT22;28709;52.030;5.652;2023-10-08T07:25:35;14.30;99.90
43089;DHT22;28709;52.030;5.652;2023-10-08T07:28:04;14.40;99.90
43089;DHT22;28709;52.030;5.652;2023-10-08T07:30:35;14.30;99.90
43089;DHT22;28709;52.030;5.652;2023-10-08T07:33:04;14.40;99.90
43089;DHT22;28709;52.030;5.652;2023-10-08T07:35:30;14.40;99.90
43089;DHT22;28709;52.030;5.652;2023-10-08T07:37:56;14.40;99.90
43089;DHT22;28709;52.030;5.652;2023-10-08T07:40:21;14.40;99.90
43089;DHT22;28709;52.030;5.652;2023-10-08T07:42:53;14.40;99.90
43089;DHT22;28709;52.030;5.652;2023-10-08T07:45:19;14.40;99.90
43089;DHT22;28709;52.030;5.652;2023-10-08T07:47:47;14.40;99.90
43089;DHT22;28709;52.030;5.652;2023-10-08T07:50:14;14.40;99.90
43089;DHT22;28709;52.030;5.652;2023-10-08T07:52:41;14.40;99.90
43089;DHT22;28709;52.030;5.652;2023-10-08T07:55:10;14.40;99.90
43089;DHT22;28709;52.030;5.652;2023-10-08T07:57:36;14.50;99.90
43089;DHT22;28709;52.030;5.652;2023-10-08T08:00:02;14.60;99.90
43089;DHT22;28709;52.030;5.652;2023-10-08T08:02:43;14.60;99.90
43089;DHT22;28709;52.030;5.652;2023-10-08T08:05:09;14.70;99.90
43089;DHT22;28709;52.030;5.652;2023-10-08T08:07:35;14.60;99.90
43089;DHT22;28709;52.030;5.652;2023-10-08T08:10:02;14.70;99.90
43089;DHT22;28709;52.030;5.652;2023-10-08T08:12:36;14.70;99.90
43089;DHT22;28709;52.030;5.652;2023-10-08T08:15:03;14.70;99.90
43089;DHT22;28709;52.030;5.652;2023-10-08T08:17:41;14.80;99.90
43089;DHT22;28709;52.030;5.652;2023-10-08T08:20:07;14.80;99.90
43089;DHT22;28709;52.030;5.652;2023-10-08T08:22:43;14.90;99.90
43089;DHT22;28709;52.030;5.652;2023-10-08T08:25:16;14.90;99.90
43089;DHT22;28709;52.030;5.652;2023-10-08T08:27:45;15.00;99.90
43089;DHT22;28709;52.030;5.652;2023-10-08T08:30:14;15.00;99.90
43089;DHT22;28709;52.030;5.652;2023-10-08T08:32:45;15.10;99.90
43089;DHT22;28709;52.030;5.652;2023-10-08T08:35:13;15.10;99.90
43089;DHT22;28709;52.030;5.652;2023-10-08T08:37:42;15.10;99.90
43089;DHT22;28709;52.030;5.652;2023-10-08T08:40:09;15.10;99.90
43089;DHT22;28709;52.030;5.652;2023-10-08T08:42:35;15.10;99.90
43089;DHT22;28709;52.030;5.652;2023-10-08T08:45:05;15.10;99.90
43089;DHT22;28709;52.030;5.652;2023-10-08T08:47:35;15.10;99.90
43089;DHT22;28709;52.030;5.652;2023-10-08T08:50:02;15.20;99.90
43089;DHT22;28709;52.030;5.652;2023-10-08T08:52:38;15.20;99.90
43089;DHT22;28709;52.030;5.652;2023-10-08T08:55:05;15.10;99.90
43089;DHT22;28709;52.030;5.652;2023-10-08T08:57:36;15.20;99.90
43089;DHT22;28709;52.030;5.652;2023-10-08T09:00:06;15.20;99.90
43089;DHT22;28709;52.030;5.652;2023-10-08T09:02:37;15.30;99.90
43089;DHT22;28709;52.030;5.652;2023-10-08T09:05:03;15.30;99.90
43089;DHT22;28709;52.030;5.652;2023-10-08T09:08:06;15.40;99.90
43089;DHT22;28709;52.030;5.652;2023-10-08T09:10:33;15.40;99.90
43089;DHT22;28709;52.030;5.652;2023-10-08T09:13:25;15.40;99.90
43089;DHT22;28709;52.030;5.652;2023-10-08T09:15:51;15.40;99.90
43089;DHT22;28709;52.030;5.652;2023-10-08T09:18:17;15.30;99.90
43089;DHT22;28709;52.030;5.652;2023-10-08T09:20:43;15.30;99.90
43089;DHT22;28709;52.030;5.652;2023-10-08T09:25:45;15.20;99.90
43089;DHT22;28709;52.030;5.652;2023-10-08T09:28:15;15.20;99.90
43089;DHT22;28709;52.030;5.652;2023-10-08T09:30:42;15.10;99.90
43089;DHT22;28709;52.030;5.652;2023-10-08T09:33:11;15.10;99.90
43089;DHT22;28709;52.030;5.652;2023-10-08T09:35:43;15.10;99.90
43089;DHT22;28709;52.030;5.652;2023-10-08T09:38:11;15.10;99.90
43089;DHT22;28709;52.030;5.652;2023-10-08T09:40:41;15.20;99.90
43089;DHT22;28709;52.030;5.652;2023-10-08T09:43:13;15.30;99.90
43089;DHT22;28709;52.030;5.652;2023-10-08T09:45:43;15.30;99.90
43089;DHT22;28709;52.030;5.652;2023-10-08T09:48:11;15.30;99.90
43089;DHT22;28709;52.030;5.652;2023-10-08T09:50:40;15.20;99.90
43089;DHT22;28709;52.030;5.652;2023-10-08T09:53:13;15.20;99.90
43089;DHT22;28709;52.030;5.652;2023-10-08T09:55:55;15.20;99.90
43089;DHT22;28709;52.030;5.652;2023-10-08T09:58:26;15.20;99.90
43089;DHT22;28709;52.030;5.652;2023-10-08T10:00:54;15.30;99.90
43089;DHT22;28709;52.030;5.652;2023-10-08T10:03:20;15.30;99.90
43089;DHT22;28709;52.030;5.652;2023-10-08T10:05:48;15.30;99.90
43089;DHT22;28709;52.030;5.652;2023-10-08T10:08:16;15.30;99.90
43089;DHT22;28709;52.030;5.652;2023-10-08T10:10:42;15.30;99.90
43089;DHT22;28709;52.030;5.652;2023-10-08T10:13:15;15.30;99.90
43089;DHT22;28709;52.030;5.652;2023-10-08T10:15:42;15.40;99.90
43089;DHT22;28709;52.030;5.652;2023-10-08T10:18:13;15.50;99.90
43089;DHT22;28709;52.030;5.652;2023-10-08T10:20:57;15.60;99.90
43089;DHT22;28709;52.030;5.652;2023-10-08T10:26:33;15.80;99.90
43089;DHT22;28709;52.030;5.652;2023-10-08T10:31:50;16.10;99.90
43089;DHT22;28709;52.030;5.652;2023-10-08T10:34:21;16.20;99.90
43089;DHT22;28709;52.030;5.652;2023-10-08T10:36:49;16.20;99.90
43089;DHT22;28709;52.030;5.652;2023-10-08T10:39:17;16.20;99.90
43089;DHT22;28709;52.030;5.652;2023-10-08T10:41:47;16.30;99.90
43089;DHT22;28709;52.030;5.652;2023-10-08T10:44:14;16.30;99.90
43089;DHT22;28709;52.030;5.652;2023-10-08T10:46:42;16.30;99.90
43089;DHT22;28709;52.030;5.652;2023-10-08T10:49:09;16.40;99.90
43089;DHT22;28709;52.030;5.652;2023-10-08T10:51:50;16.50;99.90
43089;DHT22;28709;52.030;5.652;2023-10-08T10:54:25;16.50;99.90
43089;DHT22;28709;52.030;5.652;2023-10-08T10:56:52;16.50;99.90
43089;DHT22;28709;52.030;5.652;2023-10-08T10:59:29;16.50;99.90
43089;DHT22;28709;52.030;5.652;2023-10-08T11:02:05;16.60;99.90
43089;DHT22;28709;52.030;5.652;2023-10-08T11:04:46;16.60;99.90
43089;DHT22;28709;52.030;5.652;2023-10-08T11:07:19;16.60;99.90
43089;DHT22;28709;52.030;5.652;2023-10-08T11:09:49;16.60;99.90
43089;DHT22;28709;52.030;5.652;2023-10-08T11:12:18;16.70;99.90
43089;DHT22;28709;52.030;5.652;2023-10-08T11:14:49;16.80;99.90
43089;DHT22;28709;52.030;5.652;2023-10-08T11:17:22;16.80;99.90
43089;DHT22;28709;52.030;5.652;2023-10-08T11:19:48;16.80;99.90
43089;DHT22;28709;52.030;5.652;2023-10-08T11:22:15;16.80;99.90
43089;DHT22;28709;52.030;5.652;2023-10-08T11:24:45;16.80;99.90
43089;DHT22;28709;52.030;5.652;2023-10-08T11:27:17;16.80;99.90
43089;DHT22;28709;52.030;5.652;2023-10-08T11:29:54;16.80;99.90
43089;DHT22;28709;52.030;5.652;2023-10-08T11:32:24;16.70;99.90
43089;DHT22;28709;52.030;5.652;2023-10-08T11:34:59;16.70;99.90
43089;DHT22;28709;52.030;5.652;2023-10-08T11:37:32;16.70;99.90
43089;DHT22;28709;52.030;5.652;2023-10-08T11:40:02;16.60;99.90
43089;DHT22;28709;52.030;5.652;2023-10-08T11:42:43;16.60;99.90
43089;DHT22;28709;52.030;5.652;2023-10-08T11:45:10;16.60;99.90
43089;DHT22;28709;52.030;5.652;2023-10-08T11:47:53;16.60;99.90
43089;DHT22;28709;52.030;5.652;2023-10-08T11:50:27;16.50;99.90
43089;DHT22;28709;52.030;5.652;2023-10-08T11:52:58;16.50;99.90
43089;DHT22;28709;52.030;5.652;2023-10-08T11:55:27;16.40;99.90
43089;DHT22;28709;52.030;5.652;2023-10-08T11:57:53;16.40;99.90
43089;DHT22;28709;52.030;5.652;2023-10-08T12:00:19;16.40;99.90
43089;DHT22;28709;52.030;5.652;2023-10-08T12:02:46;16.30;99.90
43089;DHT22;28709;52.030;5.652;2023-10-08T12:05:12;16.30;99.90
43089;DHT22;28709;52.030;5.652;2023-10-08T12:07:47;16.30;99.90
43089;DHT22;28709;52.030;5.652;2023-10-08T12:10:14;16.30;99.90
43089;DHT22;28709;52.030;5.652;2023-10-08T12:12:42;16.30;99.90
43089;DHT22;28709;52.030;5.652;2023-10-08T12:15:08;16.30;99.90
43089;DHT22;28709;52.030;5.652;2023-10-08T12:17:35;16.30;99.90
43089;DHT22;28709;52.030;5.652;2023-10-08T12:20:06;16.30;99.90
43089;DHT22;28709;52.030;5.652;2023-10-08T12:22:51;16.40;99.90
43089;DHT22;28709;52.030;5.652;2023-10-08T12:25:17;16.40;99.90
43089;DHT22;28709;52.030;5.652;2023-10-08T12:27:43;16.50;99.90
43089;DHT22;28709;52.030;5.652;2023-10-08T12:30:09;16.50;99.90
43089;DHT22;28709;52.030;5.652;2023-10-08T12:32:39;16.60;99.90
43089;DHT22;28709;52.030;5.652;2023-10-08T12:35:09;16.70;99.90
43089;DHT22;28709;52.030;5.652;2023-10-08T12:37:40;16.70;99.90
43089;DHT22;28709;52.030;5.652;2023-10-08T12:40:10;16.70;99.90
43089;DHT22;28709;52.030;5.652;2023-10-08T12:42:51;16.60;99.90
43089;DHT22;28709;52.030;5.652;2023-10-08T12:45:17;16.60;99.90
43089;DHT22;28709;52.030;5.652;2023-10-08T12:47:49;16.70;99.90
43089;DHT22;28709;52.030;5.652;2023-10-08T12:50:19;16.80;99.90
43089;DHT22;28709;52.030;5.652;2023-10-08T12:52:57;16.80;99.90
43089;DHT22;28709;52.030;5.652;2023-10-08T12:55:29;16.90;99.90
43089;DHT22;28709;52.030;5.652;2023-10-08T12:57:56;16.80;99.90
43089;DHT22;28709;52.030;5.652;2023-10-08T13:00:31;16.80;99.90
43089;DHT22;28709;52.030;5.652;2023-10-08T13:02:57;16.80;99.90
43089;DHT22;28709;52.030;5.652;2023-10-08T13:05:23;16.80;99.90
43089;DHT22;28709;52.030;5.652;2023-10-08T13:07:56;16.90;99.90
43089;DHT22;28709;52.030;5.652;2023-10-08T13:10:25;16.90;99.90
43089;DHT22;28709;52.030;5.652;2023-10-08T13:12:51;16.80;99.90
43089;DHT22;28709;52.030;5.652;2023-10-08T13:15:17;16.80;99.90
43089;DHT22;28709;52.030;5.652;2023-10-08T13:17:43;16.80;99.90
43089;DHT22;28709;52.030;5.652;2023-10-08T13:20:12;16.80;99.90
43089;DHT22;28709;52.030;5.652;2023-10-08T13:22:41;16.80;99.90
43089;DHT22;28709;52.030;5.652;2023-10-08T13:25:09;16.80;99.90
43089;DHT22;28709;52.030;5.652;2023-10-08T13:27:35;16.80;99.90
43089;DHT22;28709;52.030;5.652;2023-10-08T13:30:06;16.80;99.90
43089;DHT22;28709;52.030;5.652;2023-10-08T13:32:37;16.80;99.90
43089;DHT22;28709;52.030;5.652;2023-10-08T13:35:06;16.70;99.90
43089;DHT22;28709;52.030;5.652;2023-10-08T13:37:34;16.60;99.90
43089;DHT22;28709;52.030;5.652;2023-10-08T13:40:01;16.60;99.90
43089;DHT22;28709;52.030;5.652;2023-10-08T13:42:26;16.70;99.90
43089;DHT22;28709;52.030;5.652;2023-10-08T13:44:53;16.70;99.90
43089;DHT22;28709;52.030;5.652;2023-10-08T13:47:20;16.80;99.90
43089;DHT22;28709;52.030;5.652;2023-10-08T13:49:48;16.80;99.90
43089;DHT22;28709;52.030;5.652;2023-10-08T13:52:16;16.90;99.90
43089;DHT22;28709;52.030;5.652;2023-10-08T13:54:42;16.90;99.90
43089;DHT22;28709;52.030;5.652;2023-10-08T13:57:16;16.90;99.90
43089;DHT22;28709;52.030;5.652;2023-10-08T13:59:44;16.90;99.90
43089;DHT22;28709;52.030;5.652;2023-10-08T14:02:10;16.90;99.90
43089;DHT22;28709;52.030;5.652;2023-10-08T14:04:44;16.80;99.90
43089;DHT22;28709;52.030;5.652;2023-10-08T14:07:13;16.90;99.90
43089;DHT22;28709;52.030;5.652;2023-10-08T14:09:45;17.00;99.90
43089;DHT22;28709;52.030;5.652;2023-10-08T14:12:12;17.10;99.90
43089;DHT22;28709;52.030;5.652;2023-10-08T14:14:40;17.10;99.90
43089;DHT22;28709;52.030;5.652;2023-10-08T14:17:09;17.10;99.90
43089;DHT22;28709;52.030;5.652;2023-10-08T14:19:40;17.10;99.90
43089;DHT22;28709;52.030;5.652;2023-10-08T14:22:17;17.00;99.90
43089;DHT22;28709;52.030;5.652;2023-10-08T14:24:45;16.90;99.90
43089;DHT22;28709;52.030;5.652;2023-10-08T14:27:11;16.90;99.90
43089;DHT22;28709;52.030;5.652;2023-10-08T14:29:40;16.80;99.90
43089;DHT22;28709;52.030;5.652;2023-10-08T14:32:09;16.90;99.90
43089;DHT22;28709;52.030;5.652;2023-10-08T14:34:36;16.90;99.90
43089;DHT22;28709;52.030;5.652;2023-10-08T14:37:21;16.80;99.90
43089;DHT22;28709;52.030;5.652;2023-10-08T14:40:06;16.70;99.90
43089;DHT22;28709;52.030;5.652;2023-10-08T14:42:51;16.70;99.90
43089;DHT22;28709;52.030;5.652;2023-10-08T14:45:34;16.60;99.90
43089;DHT22;28709;52.030;5.652;2023-10-08T14:48:01;16.70;99.90
43089;DHT22;28709;52.030;5.652;2023-10-08T14:50:27;16.80;99.90
43089;DHT22;28709;52.030;5.652;2023-10-08T14:52:54;16.80;99.90
43089;DHT22;28709;52.030;5.652;2023-10-08T14:55:25;16.70;99.90
43089;DHT22;28709;52.030;5.652;2023-10-08T14:57:51;16.80;99.90
43089;DHT22;28709;52.030;5.652;2023-10-08T15:00:20;16.80;99.90
43089;DHT22;28709;52.030;5.652;2023-10-08T15:02:53;16.80;99.90
43089;DHT22;28709;52.030;5.652;2023-10-08T15:05:23;16.80;99.90
43089;DHT22;28709;52.030;5.652;2023-10-08T15:07:52;16.90;99.90
43089;DHT22;28709;52.030;5.652;2023-10-08T15:10:18;16.90;99.90
43089;DHT22;28709;52.030;5.652;2023-10-08T15:12:44;16.90;99.90
43089;DHT22;28709;52.030;5.652;2023-10-08T15:15:10;16.90;99.90
43089;DHT22;28709;52.030;5.652;2023-10-08T15:17:43;16.90;99.90
43089;DHT22;28709;52.030;5.652;2023-10-08T15:20:10;16.80;99.90
43089;DHT22;28709;52.030;5.652;2023-10-08T15:22:46;16.80;99.90
43089;DHT22;28709;52.030;5.652;2023-10-08T15:25:17;16.90;99.90
43089;DHT22;28709;52.030;5.652;2023-10-08T15:27:43;16.80;99.90
43089;DHT22;28709;52.030;5.652;2023-10-08T15:30:18;16.90;99.90
43089;DHT22;28709;52.030;5.652;2023-10-08T15:32:49;16.90;99.90
43089;DHT22;28709;52.030;5.652;2023-10-08T15:35:18;16.90;99.90
43089;DHT22;28709;52.030;5.652;2023-10-08T15:37:49;16.90;99.90
43089;DHT22;28709;52.030;5.652;2023-10-08T15:40:15;16.90;99.90
43089;DHT22;28709;52.030;5.652;2023-10-08T15:42:49;16.90;99.90
43089;DHT22;28709;52.030;5.652;2023-10-08T15:45:17;17.00;99.90
43089;DHT22;28709;52.030;5.652;2023-10-08T15:47:42;16.90;99.90
43089;DHT22;28709;52.030;5.652;2023-10-08T15:50:08;16.80;99.90
43089;DHT22;28709;52.030;5.652;2023-10-08T15:52:37;16.80;99.90
43089;DHT22;28709;52.030;5.652;2023-10-08T15:55:07;16.60;99.90
43089;DHT22;28709;52.030;5.652;2023-10-08T15:57:34;16.70;99.90
43089;DHT22;28709;52.030;5.652;2023-10-08T16:00:00;16.60;99.90
43089;DHT22;28709;52.030;5.652;2023-10-08T16:02:25;16.60;99.90
43089;DHT22;28709;52.030;5.652;2023-10-08T16:04:51;16.60;99.90
43089;DHT22;28709;52.030;5.652;2023-10-08T16:07:17;16.60;99.90